Time;durP1;ratioP1;P1;durP2;ratioP2;P2;SDS_P1;SDS_P2;PMS_P1;PMS_P2;Temp;Humidity;BMP_temperature;BMP_pressure;BME280_temperature;BME280_humidity;BME280_pressure;Samples;Min_cycle;Max_cycle;Signal;HPM_P1;HPM_P2
2022/01/11 00:02:21;;;;;;;;;;;1.90;99.90;;;;;;6177514;23;19921;-76
2022/01/11 00:04:50;;;;;;;;;;;1.90;99.90;;;;;;6178418;23;19924;-75
2022/01/11 00:07:18;;;;;;;;;;;1.90;99.90;;;;;;6178013;23;19950;-76
2022/01/11 00:09:46;;;;;;;;;;;1.90;99.90;;;;;;6178476;23;19925;-76
2022/01/11 00:12:12;;;;;;;;;;;1.90;99.90;;;;;;6179679;23;19935;-77
2022/01/11 00:14:39;;;;;;;;;;;1.90;99.90;;;;;;6177642;23;19982;-76
2022/01/11 00:17:06;;;;;;;;;;;1.90;99.90;;;;;;6179740;23;20527;-75
2022/01/11 00:19:34;;;;;;;;;;;1.90;99.90;;;;;;6180490;23;19927;-76
2022/01/11 00:22:06;;;;;;;;;;;1.90;99.90;;;;;;6178430;23;19924;-75
2022/01/11 00:24:33;;;;;;;;;;;1.90;99.90;;;;;;6179324;23;19920;-76
2022/01/11 00:27:01;;;;;;;;;;;1.90;99.90;;;;;;6178891;23;20004;-76
2022/01/11 00:29:28;;;;;;;;;;;1.90;99.90;;;;;;6178175;23;20402;-76
2022/01/11 00:32:01;;;;;;;;;;;1.90;99.90;;;;;;6176684;23;20007;-76
2022/01/11 00:34:38;;;;;;;;;;;1.90;99.90;;;;;;6178609;23;20324;-76
2022/01/11 00:37:06;;;;;;;;;;;1.90;99.90;;;;;;6179681;23;19920;-76
2022/01/11 00:39:34;;;;;;;;;;;1.90;99.90;;;;;;6177782;23;19920;-76
2022/01/11 00:42:01;;;;;;;;;;;1.90;99.90;;;;;;6177836;23;19936;-75
2022/01/11 00:44:28;;;;;;;;;;;1.90;99.90;;;;;;6177704;23;19921;-76
2022/01/11 00:46:55;;;;;;;;;;;1.90;99.90;;;;;;6179520;23;19931;-75
2022/01/11 00:49:22;;;;;;;;;;;1.90;99.90;;;;;;6178831;23;19928;-76
2022/01/11 00:51:49;;;;;;;;;;;1.90;99.90;;;;;;6176351;23;20376;-76
2022/01/11 00:54:18;;;;;;;;;;;1.90;99.90;;;;;;6179044;23;19970;-76
2022/01/11 00:56:45;;;;;;;;;;;1.90;99.90;;;;;;6178091;23;19928;-76
2022/01/11 00:59:12;;;;;;;;;;;1.90;99.90;;;;;;6177462;23;19986;-75
2022/01/11 01:01:39;;;;;;;;;;;1.90;99.90;;;;;;6177702;23;19924;-76
2022/01/11 01:04:06;;;;;;;;;;;1.90;99.90;;;;;;6179144;23;20356;-76
2022/01/11 01:06:33;;;;;;;;;;;1.90;99.90;;;;;;6180164;23;19943;-76
2022/01/11 01:09:00;;;;;;;;;;;1.90;99.90;;;;;;6178022;23;20000;-75
2022/01/11 01:11:29;;;;;;;;;;;1.90;99.90;;;;;;6178736;23;19928;-76
2022/01/11 01:13:57;;;;;;;;;;;1.90;99.90;;;;;;6178742;23;19967;-76
2022/01/11 01:16:24;;;;;;;;;;;1.90;99.90;;;;;;6176963;23;19946;-76
2022/01/11 01:19:19;;;;;;;;;;;1.90;99.90;;;;;;6179629;23;19956;-75
2022/01/11 01:21:48;;;;;;;;;;;1.90;99.90;;;;;;6176592;23;20357;-76
2022/01/11 01:24:15;;;;;;;;;;;1.90;99.90;;;;;;6177429;23;19920;-76
2022/01/11 01:26:43;;;;;;;;;;;1.90;99.90;;;;;;6178101;23;19920;-76
2022/01/11 01:29:10;;;;;;;;;;;1.90;99.90;;;;;;6177590;23;20275;-76
2022/01/11 01:31:37;;;;;;;;;;;1.90;99.90;;;;;;6179069;23;19927;-75
2022/01/11 01:34:04;;;;;;;;;;;1.90;99.90;;;;;;6177777;23;20263;-76
2022/01/11 01:36:32;;;;;;;;;;;1.90;99.90;;;;;;6180104;23;19920;-76
2022/01/11 01:38:59;;;;;;;;;;;1.90;99.90;;;;;;6179791;23;20411;-76
2022/01/11 01:41:26;;;;;;;;;;;1.90;99.90;;;;;;6176604;23;19935;-76
2022/01/11 01:43:56;;;;;;;;;;;1.90;99.90;;;;;;6178720;23;19931;-76
2022/01/11 01:46:23;;;;;;;;;;;1.90;99.90;;;;;;6178233;23;19920;-76
2022/01/11 01:48:51;;;;;;;;;;;1.90;99.90;;;;;;6177035;23;19921;-76
2022/01/11 01:51:18;;;;;;;;;;;1.90;99.90;;;;;;6179241;23;20616;-76
2022/01/11 01:53:46;;;;;;;;;;;2.00;99.90;;;;;;6187935;23;19944;-76
2022/01/11 01:56:13;;;;;;;;;;;1.90;99.90;;;;;;6194685;23;19920;-76
2022/01/11 01:58:42;;;;;;;;;;;1.90;99.90;;;;;;6205094;23;19964;-76
2022/01/11 02:01:13;;;;;;;;;;;1.90;99.90;;;;;;6191908;23;20300;-76
2022/01/11 02:03:40;;;;;;;;;;;1.90;99.90;;;;;;6181983;23;19921;-76
2022/01/11 02:06:08;;;;;;;;;;;1.90;99.90;;;;;;6183249;23;19951;-76
2022/01/11 02:08:35;;;;;;;;;;;1.90;99.90;;;;;;6183797;23;20265;-76
2022/01/11 02:11:02;;;;;;;;;;;1.90;99.90;;;;;;6177361;23;20612;-76
2022/01/11 02:13:29;;;;;;;;;;;1.90;99.90;;;;;;6181123;23;19920;-76
2022/01/11 02:15:57;;;;;;;;;;;1.90;99.90;;;;;;6179849;23;20634;-75
2022/01/11 02:18:26;;;;;;;;;;;1.90;99.90;;;;;;6178009;23;19924;-76
2022/01/11 02:21:00;;;;;;;;;;;1.90;99.90;;;;;;6180171;23;19948;-76
2022/01/11 02:23:32;;;;;;;;;;;1.90;99.90;;;;;;6179393;23;19921;-76
2022/01/11 02:25:59;;;;;;;;;;;1.90;99.90;;;;;;6179375;23;19924;-76
2022/01/11 02:28:29;;;;;;;;;;;1.90;99.90;;;;;;6179877;23;19932;-76
2022/01/11 02:30:57;;;;;;;;;;;1.90;99.90;;;;;;6180526;23;19940;-76
2022/01/11 02:33:32;;;;;;;;;;;1.90;99.90;;;;;;6179768;23;19971;-76
2022/01/11 02:36:11;;;;;;;;;;;1.90;99.90;;;;;;6179197;23;19921;-75
2022/01/11 02:38:38;;;;;;;;;;;2.00;99.90;;;;;;6179944;23;19927;-76
2022/01/11 02:41:05;;;;;;;;;;;1.90;99.90;;;;;;6179458;23;19967;-76
2022/01/11 02:43:32;;;;;;;;;;;1.90;99.90;;;;;;6178622;23;19947;-76
2022/01/11 02:46:01;;;;;;;;;;;1.90;99.90;;;;;;6179571;23;19924;-76
2022/01/11 02:48:31;;;;;;;;;;;2.00;99.90;;;;;;6181074;23;19927;-76
2022/01/11 02:50:58;;;;;;;;;;;1.90;99.90;;;;;;6178046;23;19927;-76
2022/01/11 02:53:28;;;;;;;;;;;1.90;99.90;;;;;;6177710;23;19951;-76
2022/01/11 02:55:56;;;;;;;;;;;2.00;99.90;;;;;;6177552;23;20388;-76
2022/01/11 02:58:23;;;;;;;;;;;1.90;99.90;;;;;;6179161;23;19920;-76
2022/01/11 03:00:50;;;;;;;;;;;2.00;99.90;;;;;;6178886;23;19924;-76
2022/01/11 03:03:20;;;;;;;;;;;1.90;99.90;;;;;;6177616;23;19975;-76
2022/01/11 03:05:48;;;;;;;;;;;2.00;99.90;;;;;;6178148;23;19920;-76
2022/01/11 03:08:18;;;;;;;;;;;2.00;99.90;;;;;;6179979;23;19928;-76
2022/01/11 03:10:47;;;;;;;;;;;2.00;99.90;;;;;;6177692;23;20359;-76
2022/01/11 03:13:16;;;;;;;;;;;2.00;99.90;;;;;;6179042;23;19948;-76
2022/01/11 03:15:44;;;;;;;;;;;2.00;99.90;;;;;;6178664;23;19920;-76
2022/01/11 03:18:13;;;;;;;;;;;2.00;99.90;;;;;;6178193;23;20705;-76
2022/01/11 03:20:46;;;;;;;;;;;2.00;99.90;;;;;;6178818;23;19920;-76
2022/01/11 03:23:16;;;;;;;;;;;2.00;99.90;;;;;;6177931;23;19920;-76
2022/01/11 03:25:43;;;;;;;;;;;1.90;99.90;;;;;;6177401;23;19920;-76
2022/01/11 03:28:13;;;;;;;;;;;2.00;99.90;;;;;;6177080;23;19920;-76
2022/01/11 03:30:40;;;;;;;;;;;1.90;99.90;;;;;;6177869;23;20234;-76
2022/01/11 03:33:08;;;;;;;;;;;2.00;99.90;;;;;;6177577;23;19920;-76
2022/01/11 03:35:36;;;;;;;;;;;2.00;99.90;;;;;;6179319;23;19931;-76
2022/01/11 03:38:04;;;;;;;;;;;1.90;99.90;;;;;;6177247;23;19975;-75
2022/01/11 03:40:31;;;;;;;;;;;1.90;99.90;;;;;;6179022;23;20003;-76
2022/01/11 03:43:01;;;;;;;;;;;2.00;99.90;;;;;;6177826;23;20400;-76
2022/01/11 03:45:30;;;;;;;;;;;2.00;99.90;;;;;;6177946;23;19924;-75
2022/01/11 03:48:03;;;;;;;;;;;1.90;99.90;;;;;;6177465;23;19940;-76
2022/01/11 03:50:31;;;;;;;;;;;2.00;99.90;;;;;;6178722;23;20357;-76
2022/01/11 03:53:07;;;;;;;;;;;2.00;99.90;;;;;;6178059;23;19920;-76
2022/01/11 03:55:47;;;;;;;;;;;2.00;99.90;;;;;;6178096;23;19920;-76
2022/01/11 03:58:16;;;;;;;;;;;2.00;99.90;;;;;;6177417;23;19920;-76
2022/01/11 04:00:45;;;;;;;;;;;2.00;99.90;;;;;;6178640;23;19927;-76
2022/01/11 04:03:12;;;;;;;;;;;1.90;99.90;;;;;;6180530;23;19924;-75
2022/01/11 04:05:42;;;;;;;;;;;1.90;99.90;;;;;;6180040;23;19920;-76
2022/01/11 04:08:09;;;;;;;;;;;2.00;99.90;;;;;;6176773;23;19920;-76
2022/01/11 04:10:36;;;;;;;;;;;2.00;99.90;;;;;;6179508;23;19927;-76
2022/01/11 04:13:03;;;;;;;;;;;2.00;99.90;;;;;;6179934;23;19924;-76
2022/01/11 04:15:30;;;;;;;;;;;2.00;99.90;;;;;;6180095;23;19924;-76
2022/01/11 04:17:59;;;;;;;;;;;2.00;99.90;;;;;;6178539;23;19928;-76
2022/01/11 04:20:26;;;;;;;;;;;2.00;99.90;;;;;;6177698;23;20265;-76
2022/01/11 04:25:42;;;;;;;;;;;2.00;99.90;;;;;;6106016;23;21015;-77
2022/01/11 04:28:09;;;;;;;;;;;2.00;99.90;;;;;;6103822;23;20181;-75
2022/01/11 04:30:37;;;;;;;;;;;2.00;99.90;;;;;;6119993;23;20004;-75
2022/01/11 04:33:06;;;;;;;;;;;2.00;99.90;;;;;;6115608;23;20463;-75
2022/01/11 04:35:33;;;;;;;;;;;2.00;99.90;;;;;;6147945;23;19921;-75
2022/01/11 04:38:00;;;;;;;;;;;2.00;99.90;;;;;;6147399;23;19921;-75
2022/01/11 04:40:28;;;;;;;;;;;1.90;99.90;;;;;;6148074;23;19924;-75
2022/01/11 04:42:55;;;;;;;;;;;2.00;99.90;;;;;;6148622;23;19943;-75
2022/01/11 04:45:22;;;;;;;;;;;2.00;99.90;;;;;;6148356;23;19920;-75
2022/01/11 04:47:56;;;;;;;;;;;2.00;99.90;;;;;;6149220;23;19932;-75
2022/01/11 04:53:08;;;;;;;;;;;2.00;99.90;;;;;;6130997;23;19928;-80
2022/01/11 04:55:35;;;;;;;;;;;2.00;99.90;;;;;;6190554;23;19924;-81
2022/01/11 04:58:02;;;;;;;;;;;2.00;99.90;;;;;;6188957;23;19924;-80
2022/01/11 05:00:30;;;;;;;;;;;1.90;99.90;;;;;;6191825;23;19964;-80
2022/01/11 05:02:59;;;;;;;;;;;2.00;99.90;;;;;;6194573;23;19920;-80
2022/01/11 05:05:28;;;;;;;;;;;2.00;99.90;;;;;;6188582;23;19943;-81
2022/01/11 05:07:57;;;;;;;;;;;2.00;99.90;;;;;;6189437;23;20176;-80
2022/01/11 05:10:26;;;;;;;;;;;2.00;99.90;;;;;;6191657;23;19920;-81
2022/01/11 05:12:53;;;;;;;;;;;2.00;99.90;;;;;;6190942;23;19924;-80
2022/01/11 05:15:23;;;;;;;;;;;2.00;99.90;;;;;;6193697;23;19947;-81
2022/01/11 05:17:51;;;;;;;;;;;2.00;99.90;;;;;;6191515;23;19972;-80
2022/01/11 05:20:18;;;;;;;;;;;2.00;99.90;;;;;;6190426;23;19928;-80
2022/01/11 05:22:47;;;;;;;;;;;2.00;99.90;;;;;;6187393;23;19931;-80
2022/01/11 05:25:15;;;;;;;;;;;1.90;99.90;;;;;;6184610;23;19944;-80
2022/01/11 05:27:44;;;;;;;;;;;2.00;99.90;;;;;;6178753;23;20699;-80
2022/01/11 05:30:13;;;;;;;;;;;2.00;99.90;;;;;;6181930;23;20069;-80
2022/01/11 05:32:41;;;;;;;;;;;1.90;99.90;;;;;;6182957;23;19920;-80
2022/01/11 05:35:08;;;;;;;;;;;2.00;99.90;;;;;;6183997;23;19921;-80
2022/01/11 05:37:35;;;;;;;;;;;2.00;99.90;;;;;;6179687;23;19952;-79
2022/01/11 05:40:02;;;;;;;;;;;1.90;99.90;;;;;;6183312;23;19931;-79
2022/01/11 05:42:29;;;;;;;;;;;2.00;99.90;;;;;;6185110;23;19904;-80
2022/01/11 05:44:58;;;;;;;;;;;2.00;99.90;;;;;;6181854;23;19971;-80
2022/01/11 05:47:25;;;;;;;;;;;2.00;99.90;;;;;;6178240;23;19920;-79
2022/01/11 05:49:52;;;;;;;;;;;2.00;99.90;;;;;;6184107;23;19928;-81
2022/01/11 05:52:19;;;;;;;;;;;2.00;99.90;;;;;;6189426;23;19959;-82
2022/01/11 05:54:46;;;;;;;;;;;2.00;99.90;;;;;;6189265;23;19932;-81
2022/01/11 05:57:13;;;;;;;;;;;2.00;99.90;;;;;;6181503;23;19921;-79
2022/01/11 05:59:41;;;;;;;;;;;2.00;99.90;;;;;;6178664;23;19920;-81
2022/01/11 06:02:09;;;;;;;;;;;2.00;99.90;;;;;;6176199;23;19920;-79
2022/01/11 06:04:36;;;;;;;;;;;1.90;99.90;;;;;;6185631;23;19924;-80
2022/01/11 06:07:03;;;;;;;;;;;1.90;99.90;;;;;;6192535;23;19920;-79
2022/01/11 06:09:31;;;;;;;;;;;2.00;99.90;;;;;;6182293;23;20319;-80
2022/01/11 06:11:58;;;;;;;;;;;2.00;99.90;;;;;;6188679;23;19951;-81
2022/01/11 06:14:25;;;;;;;;;;;2.00;99.90;;;;;;6187661;23;20413;-80
2022/01/11 06:16:52;;;;;;;;;;;2.00;99.90;;;;;;6181342;23;19924;-80
2022/01/11 06:19:21;;;;;;;;;;;2.00;99.90;;;;;;6182769;23;19920;-80
2022/01/11 06:22:00;;;;;;;;;;;2.00;99.90;;;;;;6186979;23;19934;-81
2022/01/11 06:24:27;;;;;;;;;;;2.00;99.90;;;;;;6183957;23;19999;-80
2022/01/11 06:26:54;;;;;;;;;;;2.00;99.90;;;;;;6180367;23;19920;-80
2022/01/11 06:29:21;;;;;;;;;;;2.00;99.90;;;;;;6150706;23;20003;-78
2022/01/11 06:31:48;;;;;;;;;;;2.00;99.90;;;;;;6121873;23;19927;-79
2022/01/11 06:34:15;;;;;;;;;;;2.00;99.90;;;;;;6131050;23;19924;-79
2022/01/11 06:36:44;;;;;;;;;;;2.00;99.90;;;;;;6152382;23;20237;-78
2022/01/11 06:39:11;;;;;;;;;;;2.00;99.90;;;;;;6145897;23;19935;-78
2022/01/11 06:41:40;;;;;;;;;;;2.00;99.90;;;;;;6151685;23;19920;-78
2022/01/11 06:44:10;;;;;;;;;;;2.00;99.90;;;;;;6149375;23;20387;-78
2022/01/11 06:46:38;;;;;;;;;;;2.00;99.90;;;;;;6149458;23;19920;-78
2022/01/11 06:49:06;;;;;;;;;;;2.00;99.90;;;;;;6151301;23;20349;-79
2022/01/11 06:51:35;;;;;;;;;;;1.90;99.90;;;;;;6154322;23;19982;-78
2022/01/11 06:54:03;;;;;;;;;;;1.90;99.90;;;;;;6153327;23;20286;-78
2022/01/11 06:56:30;;;;;;;;;;;1.90;99.90;;;;;;6149892;23;19924;-78
2022/01/11 06:59:04;;;;;;;;;;;1.90;99.90;;;;;;6151911;23;20354;-78
2022/01/11 07:01:32;;;;;;;;;;;1.90;99.90;;;;;;6152588;23;19924;-78
2022/01/11 07:04:03;;;;;;;;;;;1.90;99.90;;;;;;6153912;23;20316;-78
2022/01/11 07:06:35;;;;;;;;;;;2.00;99.90;;;;;;6149763;23;19971;-78
2022/01/11 07:09:05;;;;;;;;;;;1.90;99.90;;;;;;6149341;23;19924;-79
2022/01/11 07:11:34;;;;;;;;;;;1.90;99.90;;;;;;6149449;23;20007;-79
2022/01/11 07:14:03;;;;;;;;;;;1.90;99.90;;;;;;6134853;23;19924;-79
2022/01/11 07:16:31;;;;;;;;;;;1.90;99.90;;;;;;6145916;23;20003;-78
2022/01/11 07:19:00;;;;;;;;;;;2.00;99.90;;;;;;6151927;23;19967;-78
2022/01/11 07:21:27;;;;;;;;;;;2.00;99.90;;;;;;6152775;23;20126;-78
2022/01/11 07:23:54;;;;;;;;;;;2.00;99.90;;;;;;6154993;23;19922;-79
2022/01/11 07:26:22;;;;;;;;;;;2.00;99.90;;;;;;6150821;23;19924;-79
2022/01/11 07:28:49;;;;;;;;;;;1.90;99.90;;;;;;6148873;23;19991;-79
2022/01/11 07:31:19;;;;;;;;;;;1.90;99.90;;;;;;6125740;23;19948;-79
2022/01/11 07:33:50;;;;;;;;;;;2.00;99.90;;;;;;6125536;23;19976;-78
2022/01/11 07:36:17;;;;;;;;;;;2.00;99.90;;;;;;6126753;23;19975;-78
2022/01/11 07:38:48;;;;;;;;;;;1.90;99.90;;;;;;6124521;23;19964;-79
2022/01/11 07:41:21;;;;;;;;;;;1.90;99.90;;;;;;6122772;23;20235;-79
2022/01/11 07:44:03;;;;;;;;;;;1.90;99.90;;;;;;6126158;23;19924;-79
2022/01/11 07:46:35;;;;;;;;;;;2.00;99.90;;;;;;6125111;23;19924;-79
2022/01/11 07:49:05;;;;;;;;;;;1.90;99.90;;;;;;6122560;23;19931;-78
2022/01/11 07:51:35;;;;;;;;;;;1.90;99.90;;;;;;6121622;23;20003;-79
2022/01/11 07:54:07;;;;;;;;;;;1.90;99.90;;;;;;6121690;23;20369;-78
2022/01/11 07:56:36;;;;;;;;;;;1.90;99.90;;;;;;6121546;23;19925;-78
2022/01/11 07:59:05;;;;;;;;;;;1.90;99.90;;;;;;6123356;23;19981;-78
2022/01/11 08:01:38;;;;;;;;;;;1.90;99.90;;;;;;6122950;23;20282;-78
2022/01/11 08:04:05;;;;;;;;;;;1.90;99.90;;;;;;6149493;23;20510;-79
2022/01/11 08:06:37;;;;;;;;;;;1.90;99.90;;;;;;6122384;23;19924;-79
2022/01/11 08:09:10;;;;;;;;;;;2.00;99.90;;;;;;6124597;23;19964;-78
2022/01/11 08:11:38;;;;;;;;;;;2.00;99.90;;;;;;6122313;23;19924;-79
2022/01/11 08:14:07;;;;;;;;;;;2.00;99.90;;;;;;6122918;23;19942;-79
2022/01/11 08:16:36;;;;;;;;;;;2.00;99.90;;;;;;6117842;23;19931;-78
2022/01/11 08:19:03;;;;;;;;;;;2.00;99.90;;;;;;6109484;23;19924;-79
2022/01/11 08:21:30;;;;;;;;;;;2.00;99.90;;;;;;6148626;23;19944;-78
2022/01/11 08:23:58;;;;;;;;;;;2.00;99.90;;;;;;6122386;23;19920;-78
2022/01/11 08:26:26;;;;;;;;;;;2.00;99.90;;;;;;6123156;23;20341;-79
2022/01/11 08:28:53;;;;;;;;;;;2.00;99.90;;;;;;6124219;23;19925;-79
2022/01/11 08:31:22;;;;;;;;;;;2.00;99.90;;;;;;6119868;23;19956;-79
2022/01/11 08:33:53;;;;;;;;;;;2.00;99.90;;;;;;6119895;23;19979;-78
2022/01/11 08:36:25;;;;;;;;;;;2.00;99.90;;;;;;6116852;23;20015;-78
2022/01/11 08:38:53;;;;;;;;;;;2.00;99.90;;;;;;6146052;23;19956;-79
2022/01/11 08:41:22;;;;;;;;;;;2.00;99.90;;;;;;6124008;23;19925;-79
2022/01/11 08:43:50;;;;;;;;;;;2.00;99.90;;;;;;6120277;23;20393;-79
2022/01/11 08:46:19;;;;;;;;;;;2.00;99.90;;;;;;6124299;23;20257;-78
2022/01/11 08:49:13;;;;;;;;;;;2.00;99.90;;;;;;6142362;23;19932;-78
2022/01/11 08:51:41;;;;;;;;;;;2.00;99.90;;;;;;6123075;23;19928;-79
2022/01/11 08:54:11;;;;;;;;;;;2.00;99.90;;;;;;6125076;23;20257;-79
2022/01/11 08:56:39;;;;;;;;;;;2.00;99.90;;;;;;6122844;23;19920;-78
2022/01/11 08:59:06;;;;;;;;;;;2.00;99.90;;;;;;6122949;23;20369;-78
2022/01/11 09:01:37;;;;;;;;;;;2.00;99.90;;;;;;6120378;23;19928;-79
2022/01/11 09:04:08;;;;;;;;;;;2.00;99.90;;;;;;6120058;23;19928;-79
2022/01/11 09:06:58;;;;;;;;;;;2.00;99.90;;;;;;6124620;23;19924;-79
2022/01/11 09:09:26;;;;;;;;;;;2.00;99.90;;;;;;6123331;23;20301;-79
2022/01/11 09:11:54;;;;;;;;;;;2.00;99.90;;;;;;6125249;23;20348;-79
2022/01/11 09:14:22;;;;;;;;;;;2.00;99.90;;;;;;6120745;23;19948;-79
2022/01/11 09:16:50;;;;;;;;;;;2.00;99.90;;;;;;6123453;23;19991;-79
2022/01/11 09:19:18;;;;;;;;;;;2.00;99.90;;;;;;6124331;23;19925;-79
2022/01/11 09:21:46;;;;;;;;;;;2.00;99.90;;;;;;6111233;23;19948;-79
2022/01/11 09:24:19;;;;;;;;;;;2.00;99.90;;;;;;6140090;23;20261;-79
2022/01/11 09:26:47;;;;;;;;;;;2.00;99.90;;;;;;6125345;23;19929;-79
2022/01/11 09:29:15;;;;;;;;;;;2.00;99.90;;;;;;6133577;23;19924;-78
2022/01/11 09:31:43;;;;;;;;;;;2.00;99.90;;;;;;6178646;23;19920;-79
2022/01/11 09:34:10;;;;;;;;;;;2.10;99.90;;;;;;6155160;23;20300;-78
2022/01/11 09:36:38;;;;;;;;;;;2.10;99.90;;;;;;6151585;23;19924;-79
2022/01/11 09:39:05;;;;;;;;;;;2.10;99.90;;;;;;6178779;23;19953;-78
2022/01/11 09:41:36;;;;;;;;;;;2.10;99.90;;;;;;6150161;23;19924;-78
2022/01/11 09:44:07;;;;;;;;;;;2.10;99.90;;;;;;6152127;23;20289;-79
2022/01/11 09:46:34;;;;;;;;;;;2.10;99.90;;;;;;6150127;23;20259;-79
2022/01/11 09:49:02;;;;;;;;;;;2.10;99.90;;;;;;6150607;23;19924;-78
2022/01/11 09:51:31;;;;;;;;;;;2.10;99.90;;;;;;6151699;23;19920;-79
2022/01/11 09:53:58;;;;;;;;;;;2.10;99.90;;;;;;6150620;23;20304;-79
2022/01/11 09:56:26;;;;;;;;;;;2.10;99.90;;;;;;6150969;23;20353;-78
2022/01/11 09:58:57;;;;;;;;;;;2.10;99.90;;;;;;6153832;23;19924;-79
2022/01/11 10:01:42;;;;;;;;;;;2.10;99.90;;;;;;6177344;23;19930;-79
2022/01/11 10:04:11;;;;;;;;;;;2.10;99.90;;;;;;6180477;23;19920;-79
2022/01/11 10:07:13;;;;;;;;;;;2.10;99.90;;;;;;6085641;23;19928;-79
2022/01/11 10:09:45;;;;;;;;;;;2.10;99.90;;;;;;6140532;23;20329;-79
2022/01/11 10:12:13;;;;;;;;;;;2.10;99.90;;;;;;6152775;23;19926;-79
2022/01/11 10:14:47;;;;;;;;;;;2.10;99.90;;;;;;6152767;23;20258;-80
2022/01/11 10:17:18;;;;;;;;;;;2.10;99.90;;;;;;6153706;23;19927;-80
2022/01/11 10:19:48;;;;;;;;;;;2.10;99.90;;;;;;6151855;23;20345;-79
2022/01/11 10:22:19;;;;;;;;;;;2.10;99.90;;;;;;6153479;23;20567;-79
2022/01/11 10:24:47;;;;;;;;;;;2.10;99.90;;;;;;6145067;23;19934;-78
2022/01/11 10:27:37;;;;;;;;;;;2.20;99.90;;;;;;6171581;23;19924;-79
2022/01/11 10:30:08;;;;;;;;;;;2.20;99.90;;;;;;6154184;23;20345;-78
2022/01/11 10:32:37;;;;;;;;;;;2.20;99.90;;;;;;6153974;23;19928;-78
2022/01/11 10:35:13;;;;;;;;;;;2.20;99.90;;;;;;6155072;23;19955;-79
2022/01/11 10:37:43;;;;;;;;;;;2.20;99.90;;;;;;6155342;23;20003;-78
2022/01/11 10:40:14;;;;;;;;;;;2.20;99.90;;;;;;6152529;23;19920;-78
2022/01/11 10:42:45;;;;;;;;;;;2.20;99.90;;;;;;6152837;23;19932;-77
2022/01/11 10:45:14;;;;;;;;;;;2.20;99.90;;;;;;6155295;23;19924;-79
2022/01/11 10:47:46;;;;;;;;;;;2.20;99.90;;;;;;6152769;23;19920;-79
2022/01/11 10:50:15;;;;;;;;;;;2.20;99.90;;;;;;6153313;23;19924;-79
2022/01/11 10:52:43;;;;;;;;;;;2.20;99.90;;;;;;6153781;23;19924;-79
2022/01/11 10:55:20;;;;;;;;;;;2.20;99.90;;;;;;6155243;23;20257;-79
2022/01/11 10:57:52;;;;;;;;;;;2.20;99.90;;;;;;6155546;23;19921;-79
2022/01/11 11:00:22;;;;;;;;;;;2.20;99.90;;;;;;6155147;23;19921;-79
2022/01/11 11:02:52;;;;;;;;;;;2.20;99.90;;;;;;6155582;23;19921;-79
2022/01/11 11:05:23;;;;;;;;;;;2.20;99.90;;;;;;6156803;23;19975;-79
2022/01/11 11:07:57;;;;;;;;;;;2.20;99.90;;;;;;6153181;23;20007;-78
2022/01/11 11:10:28;;;;;;;;;;;2.20;99.90;;;;;;6151800;23;19920;-79
2022/01/11 11:12:56;;;;;;;;;;;2.30;99.90;;;;;;6155084;23;19963;-79
2022/01/11 11:15:29;;;;;;;;;;;2.30;99.90;;;;;;6155107;23;19921;-79
2022/01/11 11:17:56;;;;;;;;;;;2.20;99.90;;;;;;6154877;23;19999;-78
2022/01/11 11:20:31;;;;;;;;;;;2.30;99.90;;;;;;6152125;23;20272;-78
2022/01/11 11:22:58;;;;;;;;;;;2.30;99.90;;;;;;6179368;23;19926;-79
2022/01/11 11:30:13;;;;;;;;;;;2.90;99.90;;;;;;5130576;27;19920;-79
2022/01/11 11:32:40;;;;;;;;;;;2.70;99.90;;;;;;5135093;27;19927;-79
2022/01/11 11:35:08;;;;;;;;;;;2.60;99.90;;;;;;5136375;27;19935;-79
2022/01/11 11:37:38;;;;;;;;;;;2.50;99.90;;;;;;5131777;27;19932;-80
2022/01/11 11:40:07;;;;;;;;;;;2.70;99.90;;;;;;5128262;27;19923;-80
2022/01/11 11:42:34;;;;;;;;;;;2.90;99.90;;;;;;5133258;27;19932;-80
2022/01/11 11:45:14;;;;;;;;;;;3.00;99.90;;;;;;5127501;27;19954;-80
2022/01/11 11:47:44;;;;;;;;;;;3.00;99.90;;;;;;5136710;27;19923;-80
2022/01/11 11:50:13;;;;;;;;;;;2.90;99.90;;;;;;5136432;27;19974;-80
2022/01/11 11:52:42;;;;;;;;;;;3.00;99.90;;;;;;5139766;27;19927;-80
2022/01/11 11:55:10;;;;;;;;;;;3.00;99.90;;;;;;5147262;27;19924;-80
2022/01/11 11:57:40;;;;;;;;;;;3.10;99.90;;;;;;5135167;27;20429;-79
2022/01/11 12:00:08;;;;;;;;;;;3.10;99.90;;;;;;5138531;27;19938;-80
2022/01/11 12:02:43;;;;;;;;;;;3.20;99.90;;;;;;5137826;27;19924;-80
2022/01/11 12:05:11;;;;;;;;;;;3.20;99.90;;;;;;5137531;27;19927;-80
2022/01/11 12:07:41;;;;;;;;;;;3.30;99.90;;;;;;5138619;27;19976;-80
2022/01/11 12:10:13;;;;;;;;;;;3.30;99.90;;;;;;5138138;27;20026;-79
2022/01/11 12:12:41;;;;;;;;;;;3.30;99.90;;;;;;5134839;27;20022;-78
2022/01/11 12:15:31;;;;;;;;;;;3.50;99.90;;;;;;5134301;27;20448;-79
2022/01/11 12:18:15;;;;;;;;;;;3.40;99.90;;;;;;5139924;27;19940;-78
2022/01/11 12:20:43;;;;;;;;;;;3.30;99.90;;;;;;5138961;27;20408;-79
2022/01/11 12:23:11;;;;;;;;;;;3.20;99.90;;;;;;5134660;27;19931;-78
2022/01/11 12:25:42;;;;;;;;;;;3.80;99.90;;;;;;5132640;27;19923;-78
2022/01/11 12:28:15;;;;;;;;;;;4.10;99.90;;;;;;5123000;27;19974;-79
2022/01/11 12:30:42;;;;;;;;;;;4.00;99.90;;;;;;5110445;27;20346;-78
2022/01/11 12:33:11;;;;;;;;;;;3.80;99.90;;;;;;5122690;27;19939;-79
2022/01/11 12:35:53;;;;;;;;;;;3.70;99.90;;;;;;5129019;27;20547;-79
2022/01/11 12:38:20;;;;;;;;;;;3.60;99.90;;;;;;5129396;27;19924;-79
2022/01/11 12:40:47;;;;;;;;;;;3.60;99.90;;;;;;5127346;27;20356;-79
2022/01/11 12:43:19;;;;;;;;;;;3.70;99.90;;;;;;5117551;27;19984;-79
2022/01/11 12:46:00;;;;;;;;;;;3.60;99.90;;;;;;5115113;27;19924;-79
2022/01/11 12:49:00;;;;;;;;;;;3.50;99.90;;;;;;5117910;27;19938;-79
2022/01/11 12:51:31;;;;;;;;;;;3.60;99.90;;;;;;5061648;28;20028;-78
2022/01/11 12:54:17;;;;;;;;;;;3.50;99.90;;;;;;5071338;28;19939;-79
2022/01/11 12:56:46;;;;;;;;;;;3.40;99.90;;;;;;5088393;27;19953;-80
2022/01/11 12:59:13;;;;;;;;;;;3.60;99.90;;;;;;5114971;27;19931;-79
2022/01/11 13:01:40;;;;;;;;;;;3.60;99.90;;;;;;5112938;27;19923;-78
2022/01/11 13:04:07;;;;;;;;;;;3.60;99.90;;;;;;5118076;27;20551;-78
2022/01/11 13:06:36;;;;;;;;;;;3.40;99.90;;;;;;5111855;27;19977;-79
2022/01/11 13:09:04;;;;;;;;;;;3.40;99.90;;;;;;5123141;27;20097;-79
2022/01/11 13:11:32;;;;;;;;;;;3.30;99.90;;;;;;5109645;27;20308;-79
2022/01/11 13:14:16;;;;;;;;;;;3.30;99.90;;;;;;5119012;27;19935;-79
2022/01/11 13:16:44;;;;;;;;;;;3.30;99.90;;;;;;5118523;27;19932;-78
2022/01/11 13:19:11;;;;;;;;;;;3.30;99.90;;;;;;5123255;27;19928;-80
2022/01/11 13:21:40;;;;;;;;;;;3.30;99.90;;;;;;5124774;27;19930;-80
2022/01/11 13:24:22;;;;;;;;;;;3.20;99.90;;;;;;5113095;27;22258;-78
2022/01/11 13:26:50;;;;;;;;;;;3.20;99.90;;;;;;5122952;27;20397;-79
2022/01/11 13:29:17;;;;;;;;;;;3.30;99.90;;;;;;5122080;27;19923;-79
2022/01/11 13:31:47;;;;;;;;;;;3.30;99.90;;;;;;5122996;27;19931;-79
2022/01/11 13:34:15;;;;;;;;;;;3.30;99.90;;;;;;5115408;27;20402;-78
2022/01/11 13:36:47;;;;;;;;;;;3.30;99.90;;;;;;5119413;27;19946;-78
2022/01/11 13:39:15;;;;;;;;;;;3.30;99.90;;;;;;5120733;27;19931;-79
2022/01/11 13:41:45;;;;;;;;;;;3.30;99.90;;;;;;5112913;27;19931;-78
2022/01/11 13:44:13;;;;;;;;;;;3.30;99.90;;;;;;5112944;27;19940;-79
2022/01/11 13:46:42;;;;;;;;;;;3.30;99.90;;;;;;5123289;27;19931;-78
2022/01/11 13:49:13;;;;;;;;;;;3.30;99.90;;;;;;5120732;27;20283;-78
2022/01/11 13:51:43;;;;;;;;;;;3.30;99.90;;;;;;5120636;27;19959;-79
2022/01/11 13:54:15;;;;;;;;;;;3.20;99.90;;;;;;5117534;27;19924;-79
2022/01/11 13:56:44;;;;;;;;;;;3.20;99.90;;;;;;5120712;27;19931;-79
2022/01/11 13:59:12;;;;;;;;;;;3.20;99.90;;;;;;5122096;27;19924;-78
2022/01/11 14:01:39;;;;;;;;;;;3.20;99.90;;;;;;5112908;27;20607;-78
2022/01/11 14:04:10;;;;;;;;;;;3.20;99.90;;;;;;5109743;27;19930;-78
2022/01/11 14:06:42;;;;;;;;;;;3.20;99.90;;;;;;5119032;27;20012;-79
2022/01/11 14:09:15;;;;;;;;;;;3.20;99.90;;;;;;5108536;27;19927;-78
2022/01/11 14:12:02;;;;;;;;;;;3.20;99.90;;;;;;5118122;27;19930;-78
2022/01/11 14:14:29;;;;;;;;;;;3.20;99.90;;;;;;5123433;27;19962;-78
2022/01/11 14:16:56;;;;;;;;;;;3.10;99.90;;;;;;5114734;27;19924;-79
2022/01/11 14:19:25;;;;;;;;;;;3.10;99.90;;;;;;5114819;27;19991;-79
2022/01/11 14:21:53;;;;;;;;;;;3.10;99.90;;;;;;5117074;27;19923;-79
2022/01/11 14:24:21;;;;;;;;;;;3.10;99.90;;;;;;5114681;27;20010;-78
2022/01/11 14:26:50;;;;;;;;;;;3.10;99.90;;;;;;5115856;27;19927;-78
2022/01/11 14:29:17;;;;;;;;;;;3.10;99.90;;;;;;5130858;27;19924;-79
2022/01/11 14:31:45;;;;;;;;;;;3.10;99.90;;;;;;5112393;27;20149;-78
2022/01/11 14:34:15;;;;;;;;;;;3.10;99.90;;;;;;5113012;27;19924;-78
2022/01/11 14:36:44;;;;;;;;;;;3.10;99.90;;;;;;5087860;27;19935;-78
2022/01/11 14:39:12;;;;;;;;;;;3.10;99.90;;;;;;5107576;27;19930;-78
2022/01/11 14:41:41;;;;;;;;;;;3.00;99.90;;;;;;5108308;27;19956;-78
2022/01/11 14:44:10;;;;;;;;;;;3.00;99.90;;;;;;5118896;27;19959;-78
2022/01/11 14:46:51;;;;;;;;;;;3.00;99.90;;;;;;5118208;27;20085;-79
2022/01/11 14:49:19;;;;;;;;;;;3.00;99.90;;;;;;5111421;27;20309;-78
2022/01/11 14:51:48;;;;;;;;;;;3.00;99.90;;;;;;5111778;27;19927;-78
2022/01/11 14:54:18;;;;;;;;;;;3.00;99.90;;;;;;5116111;27;19927;-79
2022/01/11 14:56:46;;;;;;;;;;;3.00;99.90;;;;;;5110731;27;19939;-79